Time;durP1;ratioP1;P1;durP2;ratioP2;P2;SDS_P1;SDS_P2;PMS_P1;PMS_P2;Temp;Humidity;BMP_temperature;BMP_pressure;BME280_temperature;BME280_humidity;BME280_pressure;Samples;Min_cycle;Max_cycle;Signal;HPM_P1;HPM_P2
2022/03/14 00:00:19;;;;;;;19.48;8.98;;;;;;;-0.09;68.52;102115.98;1832984;77;25717;-60
2022/03/14 00:02:48;;;;;;;28.57;12.40;;;;;;;-0.16;68.72;102114.59;1791289;80;21127;-61
2022/03/14 00:05:18;;;;;;;29.65;12.40;;;;;;;-0.16;68.72;102114.59;1789836;80;21115;-62
2022/03/14 00:07:48;;;;;;;22.50;10.63;;;;;;;-0.13;68.90;102117.11;1788576;80;21543;-60
2022/03/14 00:10:19;;;;;;;23.25;11.15;;;;;;;-0.13;68.94;102109.03;1788649;80;21142;-61
2022/03/14 00:12:51;;;;;;;25.65;11.30;;;;;;;-0.13;68.98;102113.94;1788703;80;21155;-60
2022/03/14 00:15:20;;;;;;;23.05;10.82;;;;;;;-0.14;69.06;102112.68;1788540;80;21154;-60
2022/03/14 00:17:49;;;;;;;22.27;10.95;;;;;;;-0.13;69.14;102119.33;1788562;80;21194;-60
2022/03/14 00:20:21;;;;;;;22.32;11.03;;;;;;;-0.13;69.13;102109.90;1788887;80;21143;-61
2022/03/14 00:22:51;;;;;;;21.15;10.13;;;;;;;-0.12;68.98;102106.73;1788895;79;21612;-60
2022/03/14 00:25:20;;;;;;;21.50;10.25;;;;;;;-0.13;68.87;102110.38;1788640;80;21138;-60
2022/03/14 00:27:49;;;;;;;21.17;10.28;;;;;;;-0.10;68.74;102119.16;1680741;84;21166;-61
2022/03/14 00:30:20;;;;;;;22.13;10.13;;;;;;;-0.07;68.65;102103.29;1704535;84;21115;-61
2022/03/14 00:32:50;;;;;;;20.40;9.48;;;;;;;-0.07;68.63;102109.55;1704856;84;21650;-61
2022/03/14 00:35:19;;;;;;;18.40;9.10;;;;;;;-0.06;68.50;102109.07;1705270;84;21167;-60
2022/03/14 00:37:47;;;;;;;21.20;9.60;;;;;;;-0.04;68.18;102114.77;1704880;84;21635;-59
2022/03/14 00:40:16;;;;;;;18.73;8.90;;;;;;;-0.01;67.91;102122.67;1704959;84;21130;-61
2022/03/14 00:42:49;;;;;;;17.17;8.25;;;;;;;0.02;67.67;102120.79;1704895;84;21197;-61
2022/03/14 00:45:18;;;;;;;15.40;7.47;;;;;;;0.03;67.39;102118.48;1723318;80;21543;-61
2022/03/14 00:47:47;;;;;;;19.92;9.63;;;;;;;0.02;67.35;102113.58;1788667;80;21150;-61
2022/03/14 00:50:16;;;;;;;18.15;9.55;;;;;;;-0.03;67.44;102111.59;1788789;80;21180;-61
2022/03/14 00:52:46;;;;;;;22.75;9.85;;;;;;;-0.07;67.60;102120.80;1788610;79;21629;-61
2022/03/14 00:55:14;;;;;;;21.33;10.32;;;;;;;-0.11;67.65;102109.81;1788650;80;21103;-62
2022/03/14 00:57:43;;;;;;;23.38;10.78;;;;;;;-0.11;67.74;102111.16;1788666;80;21186;-61
2022/03/14 01:00:13;;;;;;;20.20;9.98;;;;;;;-0.09;67.82;102120.02;1788691;80;21079;-60
2022/03/14 01:02:42;;;;;;;21.33;10.18;;;;;;;-0.07;67.74;102108.68;1788509;80;21095;-59
2022/03/14 01:05:12;;;;;;;21.33;10.28;;;;;;;-0.05;67.56;102121.59;1789114;80;21111;-61
2022/03/14 01:07:41;;;;;;;24.47;10.53;;;;;;;-0.04;67.40;102113.89;1788852;80;21547;-60
2022/03/14 01:10:12;;;;;;;22.17;10.55;;;;;;;-0.04;67.32;102119.28;1788902;80;21603;-60
2022/03/14 01:12:42;;;;;;;20.97;9.15;;;;;;;-0.03;67.34;102114.28;1788509;80;21107;-61
2022/03/14 01:15:12;;;;;;;19.35;9.63;;;;;;;0.00;67.30;102118.19;1788391;80;21107;-61
2022/03/14 01:17:42;;;;;;;19.73;9.13;;;;;;;0.01;67.30;102114.53;1788275;80;21668;-61
2022/03/14 01:20:13;;;;;;;18.85;9.43;;;;;;;0.03;67.34;102116.66;1788537;80;21154;-59
2022/03/14 01:22:43;;;;;;;21.75;10.93;;;;;;;0.04;67.41;102114.36;1788562;79;21122;-60
2022/03/14 01:25:12;;;;;;;23.65;10.85;;;;;;;0.05;67.39;102111.19;1788363;80;21185;-60
2022/03/14 01:27:42;;;;;;;20.40;10.20;;;;;;;0.06;67.36;102111.09;1788333;80;21138;-61
2022/03/14 01:30:12;;;;;;;24.12;11.12;;;;;;;0.08;67.35;102114.57;1788657;80;21103;-60
2022/03/14 01:32:43;;;;;;;20.32;10.13;;;;;;;0.07;67.34;102110.62;1736466;82;21458;-61
2022/03/14 01:35:13;;;;;;;25.85;11.25;;;;;;;0.07;67.41;102114.18;1736664;82;21108;-60
2022/03/14 01:37:43;;;;;;;22.45;9.90;;;;;;;0.06;67.40;102114.27;1736443;82;21119;-60
2022/03/14 01:40:16;;;;;;;26.23;11.55;;;;;;;0.05;67.38;102113.88;1713302;82;21595;-60
2022/03/14 01:42:45;;;;;;;23.80;11.40;;;;;;;0.03;67.39;102115.80;1736782;82;21412;-61
2022/03/14 01:45:15;;;;;;;24.70;11.90;;;;;;;0.02;67.48;102112.23;1639391;86;21581;-61
2022/03/14 01:47:44;;;;;;;30.75;12.05;;;;;;;0.03;67.60;102121.19;1736479;82;21099;-61
2022/03/14 01:50:14;;;;;;;24.57;11.97;;;;;;;0.03;67.74;102118.01;1748066;80;21531;-59
2022/03/14 01:52:44;;;;;;;28.02;12.20;;;;;;;0.03;67.78;102122.05;1788558;80;21130;-61
2022/03/14 01:55:13;;;;;;;25.68;12.20;;;;;;;0.02;67.75;102125.70;1788492;80;21581;-60
2022/03/14 01:57:43;;;;;;;27.82;11.75;;;;;;;0.05;67.54;102128.22;1788412;80;21540;-61
2022/03/14 02:00:13;;;;;;;24.77;11.95;;;;;;;0.06;67.29;102128.61;1777661;80;21135;-61
2022/03/14 02:02:47;;;;;;;23.25;11.28;;;;;;;0.07;66.99;102122.27;1774600;81;21131;-61
2022/03/14 02:05:17;;;;;;;24.05;11.08;;;;;;;0.08;66.76;102127.17;1774533;81;21629;-61
2022/03/14 02:07:46;;;;;;;22.90;11.30;;;;;;;0.06;66.72;102121.00;1774712;81;21629;-61
2022/03/14 02:10:16;;;;;;;25.48;11.25;;;;;;;0.05;66.80;102130.05;1774632;80;21127;-60
2022/03/14 02:12:45;;;;;;;29.18;11.80;;;;;;;0.03;66.87;102126.09;1774504;81;21656;-60
2022/03/14 02:15:16;;;;;;;26.45;11.10;;;;;;;0.04;66.84;102125.61;1774697;81;21550;-61
2022/03/14 02:17:48;;;;;;;25.27;11.28;;;;;;;0.02;66.69;102125.70;1774608;81;21083;-60
2022/03/14 02:20:18;;;;;;;24.18;10.80;;;;;;;0.01;66.53;102129.83;1774817;81;21528;-60
2022/03/14 02:22:48;;;;;;;22.40;10.75;;;;;;;0.02;66.63;102132.44;1774522;81;21080;-61
2022/03/14 02:25:17;;;;;;;24.67;11.65;;;;;;;0.04;66.55;102133.70;1774909;81;21108;-60
2022/03/14 02:27:46;;;;;;;23.35;11.83;;;;;;;0.06;66.53;102143.44;1774573;81;21108;-61
2022/03/14 02:30:15;;;;;;;23.67;11.15;;;;;;;0.06;66.35;102140.73;1774848;81;21155;-60
2022/03/14 02:32:46;;;;;;;21.87;10.63;;;;;;;0.09;66.19;102139.22;1774531;81;21111;-60
2022/03/14 02:35:14;;;;;;;28.32;10.08;;;;;;;0.09;65.82;102144.61;1774644;79;21087;-60
2022/03/14 02:37:45;;;;;;;22.20;10.00;;;;;;;0.12;65.39;102143.09;1774435;79;21191;-61
2022/03/14 02:40:16;;;;;;;23.10;11.00;;;;;;;0.14;65.08;102156.47;1774570;81;21147;-62
2022/03/14 02:42:46;;;;;;;21.80;10.58;;;;;;;0.15;64.91;102150.99;1774820;81;21135;-61
2022/03/14 02:45:15;;;;;;;21.85;9.95;;;;;;;0.17;64.83;102154.95;1774580;81;21136;-61
2022/03/14 02:47:45;;;;;;;23.15;10.20;;;;;;;0.18;64.74;102152.16;1774645;81;21119;-60
2022/03/14 02:50:14;;;;;;;22.52;10.43;;;;;;;0.18;64.32;102156.20;1774869;81;21140;-61
2022/03/14 02:52:43;;;;;;;24.18;10.65;;;;;;;0.20;64.18;102153.42;1774559;79;21633;-61
2022/03/14 02:55:13;;;;;;;19.70;10.35;;;;;;;0.21;64.08;102156.03;1774548;79;21548;-61
2022/03/14 02:57:42;;;;;;;25.00;11.22;;;;;;;0.23;63.93;102147.38;1774508;81;21151;-60
2022/03/14 03:00:13;;;;;;;22.90;10.60;;;;;;;0.23;63.70;102146.03;1779991;80;21222;-61
2022/03/14 03:02:42;;;;;;;23.47;10.70;;;;;;;0.23;63.61;102143.34;1774612;81;21096;-61
2022/03/14 03:05:11;;;;;;;25.77;11.10;;;;;;;0.23;63.57;102151.42;1774520;81;21115;-60
2022/03/14 03:07:40;;;;;;;24.50;11.00;;;;;;;0.25;63.36;102152.20;1774800;81;21564;-61
2022/03/14 03:10:10;;;;;;;25.68;10.90;;;;;;;0.25;63.26;102152.68;1774657;81;21147;-61
2022/03/14 03:12:40;;;;;;;22.32;10.95;;;;;;;0.26;63.29;102149.03;1774521;81;21712;-60
2022/03/14 03:15:11;;;;;;;21.30;10.93;;;;;;;0.26;63.30;102153.94;1774741;80;21147;-61
2022/03/14 03:17:40;;;;;;;22.30;11.38;;;;;;;0.29;63.22;102155.11;1774739;81;21146;-61
2022/03/14 03:20:11;;;;;;;21.82;11.15;;;;;;;0.30;63.21;102151.94;1774733;81;21087;-60
2022/03/14 03:22:40;;;;;;;26.20;11.90;;;;;;;0.31;63.21;102153.20;1774376;81;21111;-61
2022/03/14 03:25:10;;;;;;;22.42;11.08;;;;;;;0.31;63.24;102155.89;1774456;81;21543;-60
2022/03/14 03:27:40;;;;;;;24.65;10.55;;;;;;;0.33;63.08;102164.38;1701804;84;21103;-60
2022/03/14 03:30:11;;;;;;;24.55;11.12;;;;;;;0.31;62.98;102161.28;1701958;84;21583;-60
2022/03/14 03:32:41;;;;;;;22.15;11.48;;;;;;;0.31;62.99;102166.67;1701825;84;21151;-60
2022/03/14 03:35:10;;;;;;;25.40;11.40;;;;;;;0.33;63.00;102167.06;1627833;88;21595;-61
2022/03/14 03:37:42;;;;;;;27.32;12.33;;;;;;;0.34;62.97;102172.37;1701837;84;21116;-60
2022/03/14 03:40:12;;;;;;;25.80;11.83;;;;;;;0.33;62.87;102170.62;1627995;88;21186;-61
2022/03/14 03:42:43;;;;;;;28.90;11.75;;;;;;;0.34;62.85;102179.59;1701840;83;21575;-61
2022/03/14 03:45:13;;;;;;;26.95;11.78;;;;;;;0.33;62.87;102180.55;1627924;88;21142;-60
2022/03/14 03:47:43;;;;;;;28.80;12.07;;;;;;;0.32;62.81;102183.72;1701686;84;21163;-61
2022/03/14 03:50:12;;;;;;;29.27;12.65;;;;;;;0.30;62.85;102179.77;1702136;84;21143;-61
2022/03/14 03:52:41;;;;;;;25.08;11.75;;;;;;;0.31;62.89;102184.20;1749940;81;21163;-61
2022/03/14 03:55:10;;;;;;;25.10;12.65;;;;;;;0.32;62.89;102183.72;1774787;81;21120;-60
2022/03/14 03:57:41;;;;;;;29.00;12.53;;;;;;;0.31;62.90;102184.20;1774516;81;21543;-60
2022/03/14 04:00:12;;;;;;;22.65;11.15;;;;;;;0.29;62.80;102186.11;1775616;80;21096;-60
2022/03/14 04:02:45;;;;;;;25.57;11.55;;;;;;;0.27;62.85;102190.72;1788253;80;21115;-61
2022/03/14 04:05:21;;;;;;;26.52;12.40;;;;;;;0.27;62.93;102183.98;1788462;80;21108;-61
2022/03/14 04:07:46;;;;;;;29.50;12.37;;;;;;;0.27;62.95;102192.55;1787969;80;21142;-61
2022/03/14 04:10:15;;;;;;;27.62;12.07;;;;;;;0.26;63.02;102194.38;1788430;80;21104;-61
2022/03/14 04:12:45;;;;;;;29.35;12.95;;;;;;;0.28;63.07;102192.94;1788103;80;21111;-60
2022/03/14 04:15:17;;;;;;;26.95;12.45;;;;;;;0.27;63.09;102188.50;1788576;80;21185;-61
2022/03/14 04:17:46;;;;;;;26.23;12.33;;;;;;;0.27;63.13;102200.16;1788229;80;21197;-61
2022/03/14 04:20:15;;;;;;;27.37;13.08;;;;;;;0.28;63.15;102195.64;1788213;80;21091;-61
2022/03/14 04:22:45;;;;;;;27.40;12.47;;;;;;;0.29;63.13;102186.11;1788424;80;21560;-60
2022/03/14 04:25:15;;;;;;;30.37;13.70;;;;;;;0.28;63.14;102192.94;1788234;80;21155;-60
2022/03/14 04:27:45;;;;;;;27.90;12.03;;;;;;;0.26;63.18;102197.08;1788343;80;21134;-61
2022/03/14 04:30:16;;;;;;;28.80;13.10;;;;;;;0.26;63.27;102198.42;1788528;80;21155;-61
2022/03/14 04:32:44;;;;;;;28.87;13.48;;;;;;;0.25;63.38;102191.77;1788190;80;21205;-61
2022/03/14 04:35:15;;;;;;;28.20;13.45;;;;;;;0.23;63.44;102195.90;1788295;80;21083;-59
2022/03/14 04:37:44;;;;;;;29.90;13.58;;;;;;;0.22;63.57;102197.34;1788379;80;21162;-60
2022/03/14 04:40:14;;;;;;;26.42;13.45;;;;;;;0.21;63.63;102200.52;1788521;80;21154;-61
2022/03/14 04:42:43;;;;;;;27.73;12.78;;;;;;;0.20;63.74;102196.55;1788220;80;21126;-60
2022/03/14 04:45:12;;;;;;;33.80;13.32;;;;;;;0.20;63.69;102205.52;1788315;80;21543;-60
2022/03/14 04:47:41;;;;;;;24.85;11.25;;;;;;;0.22;63.73;102208.12;1788332;80;21527;-60
2022/03/14 04:50:10;;;;;;;31.50;12.75;;;;;;;0.20;63.52;102208.20;1788453;80;21162;-60
2022/03/14 04:52:40;;;;;;;28.70;12.00;;;;;;;0.20;63.44;102205.98;1788585;80;21115;-61
2022/03/14 04:55:09;;;;;;;32.10;13.00;;;;;;;0.20;63.51;102210.03;1788480;80;21111;-61
2022/03/14 04:57:38;;;;;;;29.35;12.35;;;;;;;0.23;63.57;102210.73;1788509;80;21539;-60
2022/03/14 05:00:09;;;;;;;26.65;12.78;;;;;;;0.25;63.52;102208.81;1788353;80;21110;-60
2022/03/14 05:02:38;;;;;;;29.07;12.05;;;;;;;0.25;63.45;102211.51;1775032;79;21111;-61
2022/03/14 05:05:14;;;;;;;24.90;10.93;;;;;;;0.26;63.37;102206.51;1774692;81;21076;-61
2022/03/14 05:07:41;;;;;;;29.63;11.50;;;;;;;0.28;63.09;102211.81;1774626;80;21159;-60
2022/03/14 05:10:11;;;;;;;27.27;11.68;;;;;;;0.29;62.90;102212.20;1774598;81;21115;-61
2022/03/14 05:12:40;;;;;;;26.15;10.45;;;;;;;0.32;62.84;102213.37;1774677;81;21127;-61
2022/03/14 05:15:10;;;;;;;25.35;11.20;;;;;;;0.34;62.77;102218.20;1774916;81;21144;-61
2022/03/14 05:17:38;;;;;;;21.82;9.98;;;;;;;0.35;62.53;102214.55;1774560;79;21202;-61
2022/03/14 05:20:09;;;;;;;20.37;9.88;;;;;;;0.36;62.40;102218.98;1774563;81;21598;-61
2022/03/14 05:22:45;;;;;;;21.37;9.53;;;;;;;0.38;62.34;102221.12;1774634;80;21542;-62
2022/03/14 05:25:14;;;;;;;21.77;10.38;;;;;;;0.36;62.22;102221.69;1774602;81;21111;-61
2022/03/14 05:27:43;;;;;;;22.45;9.65;;;;;;;0.37;62.03;102223.91;1774726;81;21171;-61
2022/03/14 05:30:12;;;;;;;27.02;9.73;;;;;;;0.39;62.02;102230.08;1774862;81;21104;-60
2022/03/14 05:32:42;;;;;;;16.45;8.28;;;;;;;0.41;61.93;102229.03;1763951;81;21528;-61
2022/03/14 05:35:16;;;;;;;20.20;9.00;;;;;;;0.42;61.77;102232.12;1774744;81;21112;-61
2022/03/14 05:37:43;;;;;;;17.50;8.28;;;;;;;0.46;61.68;102232.81;1774502;80;21143;-61
2022/03/14 05:40:15;;;;;;;18.32;8.75;;;;;;;0.47;61.34;102234.55;1774806;81;21186;-62
2022/03/14 05:42:48;;;;;;;19.87;8.68;;;;;;;0.49;61.18;102233.51;1774762;80;21158;-60
2022/03/14 05:45:19;;;;;;;16.70;8.00;;;;;;;0.51;61.09;102226.67;1774848;81;21151;-60
2022/03/14 05:47:51;;;;;;;17.52;8.33;;;;;;;0.53;60.98;102236.42;1774582;81;21362;-61
2022/03/14 05:50:20;;;;;;;17.55;8.30;;;;;;;0.54;60.71;102235.46;1774946;80;21143;-59
2022/03/14 05:52:48;;;;;;;14.87;7.03;;;;;;;0.57;60.67;102229.02;1776577;81;21199;-61
2022/03/14 05:55:17;;;;;;;15.78;6.58;;;;;;;0.61;60.44;102234.63;1777187;81;21104;-61
2022/03/14 05:57:46;;;;;;;11.33;6.10;;;;;;;0.64;59.93;102228.58;1776257;81;21119;-61
2022/03/14 06:00:23;;;;;;;13.20;5.97;;;;;;;0.68;59.81;102232.00;1774938;81;21103;-61
2022/03/14 06:02:50;;;;;;;11.25;5.15;;;;;;;0.71;59.34;102230.95;1764431;80;21119;-61
2022/03/14 06:05:20;;;;;;;10.65;4.80;;;;;;;0.72;58.75;102225.47;1782956;79;21108;-61
2022/03/14 06:07:50;;;;;;;11.57;4.85;;;;;;;0.74;58.42;102232.12;1782721;80;21147;-61
2022/03/14 06:10:20;;;;;;;8.60;4.72;;;;;;;0.76;58.19;102226.16;1782782;80;21108;-62
2022/03/14 06:12:49;;;;;;;10.08;3.92;;;;;;;0.78;57.83;102221.05;1782823;79;21143;-61
2022/03/14 06:15:18;;;;;;;8.73;4.30;;;;;;;0.82;57.65;102223.97;1783109;79;21107;-62
2022/03/14 06:17:47;;;;;;;8.50;4.25;;;;;;;0.87;57.28;102220.52;1782930;80;21583;-61
2022/03/14 06:20:16;;;;;;;11.38;5.28;;;;;;;0.90;56.91;102223.52;1782788;80;21579;-61
2022/03/14 06:22:49;;;;;;;12.28;5.28;;;;;;;0.91;56.84;102223.42;1783061;80;21159;-61
2022/03/14 06:25:18;;;;;;;8.40;4.15;;;;;;;0.94;56.93;102223.72;1782979;80;21130;-61
2022/03/14 06:27:48;;;;;;;8.28;3.92;;;;;;;0.92;56.22;102225.64;1782871;79;21083;-61
2022/03/14 06:30:17;;;;;;;9.23;4.10;;;;;;;0.91;56.32;102230.16;1782947;79;21159;-61
2022/03/14 06:32:50;;;;;;;10.38;4.30;;;;;;;0.91;56.24;102224.77;1782789;80;21166;-61
2022/03/14 06:35:20;;;;;;;7.95;4.47;;;;;;;0.94;56.14;102216.49;1783011;80;21123;-61
2022/03/14 06:37:51;;;;;;;11.25;4.05;;;;;;;0.98;55.98;102221.22;1782628;80;21113;-60
2022/03/14 06:40:21;;;;;;;8.28;4.12;;;;;;;0.99;55.63;102217.56;1782763;80;21547;-60
2022/03/14 06:42:52;;;;;;;10.72;4.60;;;;;;;0.99;55.36;102220.75;1782938;79;21155;-61
2022/03/14 06:45:24;;;;;;;8.58;4.17;;;;;;;0.98;55.16;102222.58;1782737;80;21169;-60
2022/03/14 06:47:54;;;;;;;10.93;4.60;;;;;;;0.97;55.24;102224.02;1782718;79;21139;-61
2022/03/14 06:50:23;;;;;;;9.75;4.60;;;;;;;1.00;55.48;102221.14;1782781;80;21079;-61
2022/03/14 06:52:54;;;;;;;8.63;4.45;;;;;;;1.04;55.29;102229.44;1782801;79;21543;-60
2022/03/14 06:55:22;;;;;;;11.28;5.40;;;;;;;1.10;55.09;102231.77;1782751;80;21155;-60
2022/03/14 06:57:51;;;;;;;12.82;6.28;;;;;;;1.12;54.99;102232.06;1782946;80;21107;-61
2022/03/14 07:00:20;;;;;;;13.68;7.25;;;;;;;1.14;54.72;102231.97;1782515;80;21562;-61
2022/03/14 07:02:50;;;;;;;14.40;7.33;;;;;;;1.14;54.90;102236.89;1786937;80;21535;-61
2022/03/14 07:05:20;;;;;;;16.52;8.93;;;;;;;1.16;54.92;102232.75;1788759;80;21154;-61
2022/03/14 07:07:49;;;;;;;14.43;7.72;;;;;;;1.17;54.54;102235.84;1788284;80;21630;-61
2022/03/14 07:10:19;;;;;;;15.23;7.87;;;;;;;1.11;54.52;102238.91;1787976;80;21130;-61
2022/03/14 07:12:49;;;;;;;16.62;7.90;;;;;;;1.10;54.67;102243.44;1788527;80;21146;-61
2022/03/14 07:15:21;;;;;;;13.28;6.97;;;;;;;1.09;54.81;102247.09;1788278;80;21182;-61
2022/03/14 07:17:51;;;;;;;17.90;7.20;;;;;;;1.12;55.05;102244.70;1788246;80;21111;-61
2022/03/14 07:20:20;;;;;;;10.32;6.15;;;;;;;1.15;54.86;102247.21;1788255;80;21108;-61
2022/03/14 07:22:56;;;;;;;10.90;5.80;;;;;;;1.14;54.87;102242.77;1788272;80;21182;-61
2022/03/14 07:25:31;;;;;;;8.65;4.80;;;;;;;1.15;55.05;102242.68;1788397;80;21126;-62
2022/03/14 07:28:03;;;;;;;9.33;4.75;;;;;;;1.17;54.58;102252.04;1788510;80;21162;-61
2022/03/14 07:30:32;;;;;;;9.98;4.87;;;;;;;1.18;54.75;102248.38;1788292;79;21230;-61
2022/03/14 07:33:01;;;;;;;9.23;4.85;;;;;;;1.20;54.39;102251.38;1788230;80;21143;-61
2022/03/14 07:35:30;;;;;;;8.83;4.70;;;;;;;1.21;54.37;102243.66;1788271;80;21154;-61
2022/03/14 07:37:58;;;;;;;8.25;4.12;;;;;;;1.24;54.43;102246.66;1788606;80;21195;-61
2022/03/14 07:40:27;;;;;;;8.48;3.85;;;;;;;1.30;54.41;102248.12;1788517;80;21131;-61
2022/03/14 07:43:01;;;;;;;8.33;3.67;;;;;;;1.34;53.94;102249.22;1788484;80;21193;-61
2022/03/14 07:45:33;;;;;;;6.92;3.75;;;;;;;1.35;53.51;102246.05;1788467;80;21189;-62
2022/03/14 07:48:04;;;;;;;13.15;4.30;;;;;;;1.35;53.53;102246.91;1788078;80;21535;-61
2022/03/14 07:50:35;;;;;;;7.05;3.92;;;;;;;1.42;53.36;102246.06;1788271;80;21350;-62
2022/03/14 07:53:03;;;;;;;8.80;4.00;;;;;;;1.48;53.11;102240.28;1788250;80;21111;-62
2022/03/14 07:55:32;;;;;;;9.33;3.87;;;;;;;1.55;53.17;102242.98;1788251;80;21139;-62
2022/03/14 07:58:02;;;;;;;8.05;3.85;;;;;;;1.63;52.69;102244.73;1788532;80;21593;-61
2022/03/14 08:00:32;;;;;;;9.70;4.65;;;;;;;1.67;52.75;102246.77;1736451;82;21151;-61
2022/03/14 08:03:01;;;;;;;7.22;3.70;;;;;;;1.72;52.78;102248.22;1706684;83;21163;-61
2022/03/14 08:05:30;;;;;;;8.43;4.03;;;;;;;1.81;52.68;102246.77;1730899;83;21150;-61
2022/03/14 08:08:03;;;;;;;7.15;3.75;;;;;;;1.87;51.97;102245.04;1730993;83;21131;-62
2022/03/14 08:10:36;;;;;;;6.08;3.87;;;;;;;1.91;51.82;102239.34;1645026;86;21143;-61
2022/03/14 08:13:05;;;;;;;7.67;3.80;;;;;;;1.98;51.91;102236.28;1645029;87;21143;-62
2022/03/14 08:15:38;;;;;;;5.65;3.45;;;;;;;2.04;51.83;102248.93;1593017;90;21138;-60
2022/03/14 08:18:10;;;;;;;6.53;3.70;;;;;;;2.07;51.28;102249.22;1524411;92;21171;-62
2022/03/14 08:20:41;;;;;;;8.13;4.15;;;;;;;2.11;51.50;102248.92;1551116;92;21373;-62
2022/03/14 08:23:11;;;;;;;6.45;3.70;;;;;;;2.27;51.42;102249.29;1551404;92;21266;-61
2022/03/14 08:25:41;;;;;;;9.13;4.28;;;;;;;2.56;51.20;102250.97;1551111;92;21198;-60
2022/03/14 08:28:10;;;;;;;12.20;4.47;;;;;;;2.92;50.57;102252.23;1575968;87;21205;-62
2022/03/14 08:30:40;;;;;;;11.93;5.65;;;;;;;3.25;49.41;102243.66;1646339;87;21626;-61
2022/03/14 08:33:09;;;;;;;14.43;5.83;;;;;;;3.47;48.83;102236.67;1659815;84;21599;-62
2022/03/14 08:35:39;;;;;;;12.37;5.85;;;;;;;3.60;48.76;102237.17;1720151;80;21519;-62
2022/03/14 08:38:08;;;;;;;9.45;5.12;;;;;;;3.65;48.07;102239.94;1785044;80;21107;-61
2022/03/14 08:40:37;;;;;;;14.13;4.33;;;;;;;3.66;47.61;102237.61;1784853;80;21151;-61
2022/03/14 08:43:06;;;;;;;11.88;4.20;;;;;;;3.67;47.76;102229.86;1785215;80;21565;-61
2022/03/14 08:45:35;;;;;;;13.93;4.42;;;;;;;3.77;47.90;102225.52;1784979;80;21138;-61
2022/03/14 08:48:05;;;;;;;5.65;3.72;;;;;;;3.87;47.56;102218.08;1785143;80;21162;-62
2022/03/14 08:50:37;;;;;;;7.08;3.62;;;;;;;3.89;47.32;102229.69;1785037;80;21150;-59
2022/03/14 08:53:06;;;;;;;6.78;3.77;;;;;;;3.92;47.02;102226.30;1785292;80;21507;-60
2022/03/14 08:55:35;;;;;;;11.55;4.50;;;;;;;3.93;47.12;102229.87;1785028;80;21111;-61
2022/03/14 08:58:04;;;;;;;6.10;3.80;;;;;;;3.88;47.12;102225.23;1785082;80;21507;-65
2022/03/14 09:00:33;;;;;;;9.73;4.75;;;;;;;3.74;46.79;102220.31;1785166;80;21503;-61
2022/03/14 09:03:02;;;;;;;9.85;5.22;;;;;;;3.65;47.28;102218.74;1778822;79;21159;-61
2022/03/14 09:05:31;;;;;;;11.70;4.85;;;;;;;3.60;47.60;102216.36;1774582;79;21166;-62
2022/03/14 09:08:00;;;;;;;11.18;5.20;;;;;;;3.61;47.65;102206.37;1774700;79;21532;-59
2022/03/14 09:10:35;;;;;;;14.30;4.90;;;;;;;3.60;47.74;102204.65;1774581;81;21547;-61
2022/03/14 09:13:06;;;;;;;13.83;5.33;;;;;;;3.61;47.79;102200.95;1774296;79;21547;-61
2022/03/14 09:15:36;;;;;;;12.13;5.78;;;;;;;3.68;47.82;102197.70;1774559;79;21116;-60
2022/03/14 09:18:05;;;;;;;7.47;4.83;;;;;;;3.72;47.24;102198.36;1774632;81;21088;-61
2022/03/14 09:20:39;;;;;;;10.50;5.70;;;;;;;3.72;47.38;102201.06;1774815;81;21166;-61
2022/03/14 09:23:08;;;;;;;12.65;4.95;;;;;;;3.70;47.27;102192.17;1702053;84;21225;-62
2022/03/14 09:25:37;;;;;;;10.20;5.80;;;;;;;3.63;46.71;102190.88;1701768;84;21478;-61
2022/03/14 09:28:06;;;;;;;11.63;5.67;;;;;;;3.52;47.03;102192.13;1702029;84;21135;-61
2022/03/14 09:30:35;;;;;;;13.83;5.45;;;;;;;3.43;47.08;102185.52;1628178;88;21158;-61
2022/03/14 09:33:04;;;;;;;10.60;5.55;;;;;;;3.45;47.46;102185.78;1701919;84;21614;-61
2022/03/14 09:35:34;;;;;;;11.48;5.58;;;;;;;3.55;47.36;102181.06;1701970;84;21159;-61
2022/03/14 09:38:03;;;;;;;10.20;4.72;;;;;;;3.54;46.80;102173.91;1702076;84;21174;-60
2022/03/14 09:40:33;;;;;;;12.07;5.53;;;;;;;3.53;46.94;102168.11;1645501;84;21543;-61
2022/03/14 09:43:02;;;;;;;10.93;5.30;;;;;;;3.49;46.83;102166.11;1774713;79;21103;-61
2022/03/14 09:45:33;;;;;;;13.35;5.72;;;;;;;3.46;47.10;102169.91;1774525;80;21126;-63
2022/03/14 09:48:02;;;;;;;14.47;5.60;;;;;;;3.50;47.22;102172.77;1774729;81;21115;-61
2022/03/14 09:50:37;;;;;;;14.68;5.97;;;;;;;3.55;47.47;102179.72;1774439;80;21104;-62
2022/03/14 09:53:10;;;;;;;16.02;6.60;;;;;;;3.57;47.30;102173.70;1774790;81;21150;-61
2022/03/14 09:55:43;;;;;;;14.83;6.60;;;;;;;3.59;47.40;102167.19;1774821;79;21578;-63
2022/03/14 09:58:19;;;;;;;16.80;7.10;;;;;;;3.60;47.04;102171.63;1774556;79;21162;-60
2022/03/14 10:00:49;;;;;;;16.45;6.87;;;;;;;3.58;46.87;102170.88;1774532;80;21108;-61
2022/03/14 10:03:21;;;;;;;14.93;6.87;;;;;;;3.59;47.14;102161.77;1782779;80;21107;-61
2022/03/14 10:05:50;;;;;;;16.73;6.55;;;;;;;3.61;46.79;102159.81;1788242;80;21154;-61
2022/03/14 10:08:19;;;;;;;12.55;6.33;;;;;;;3.60;46.63;102148.59;1788317;80;21103;-64
2022/03/14 10:10:48;;;;;;;15.80;6.22;;;;;;;3.62;46.89;102148.00;1788292;80;21542;-60
2022/03/14 10:13:21;;;;;;;15.68;6.87;;;;;;;3.65;47.00;102152.33;1786042;80;21138;-64
2022/03/14 10:15:51;;;;;;;11.50;6.20;;;;;;;3.69;47.39;102136.22;1788397;80;21154;-61
2022/03/14 10:18:21;;;;;;;12.15;6.40;;;;;;;3.76;47.18;102144.29;1788296;80;21135;-61
2022/03/14 10:20:57;;;;;;;13.30;6.90;;;;;;;3.80;46.85;102135.82;1788445;80;21235;-63
2022/03/14 10:23:49;;;;;;;12.55;6.92;;;;;;;3.83;46.92;102134.24;1788258;80;21123;-62
2022/03/14 10:26:19;;;;;;;14.28;7.20;;;;;;;3.89;46.85;102129.34;1787995;80;21130;-63
2022/03/14 10:28:50;;;;;;;17.00;7.62;;;;;;;3.92;46.89;102129.16;1788299;80;21111;-61
2022/03/14 10:31:40;;;;;;;12.47;6.78;;;;;;;3.95;46.87;102131.16;1733984;80;21540;-64
2022/03/14 10:34:16;;;;;;;11.18;6.35;;;;;;;4.01;46.41;102128.48;1788274;79;21103;-62
2022/03/14 10:36:57;;;;;;;13.03;6.58;;;;;;;4.05;46.34;102120.49;1767113;79;21143;-64
2022/03/14 10:39:29;;;;;;;14.80;7.87;;;;;;;4.09;46.17;102124.72;1757703;80;21537;-64
2022/03/14 10:42:13;;;;;;;12.47;6.80;;;;;;;4.07;46.05;102112.62;1757450;80;21209;-64
2022/03/14 10:44:46;;;;;;;13.98;7.30;;;;;;;4.08;46.12;102121.13;1774408;79;21083;-64
2022/03/14 10:47:15;;;;;;;13.32;7.08;;;;;;;4.09;45.84;102123.36;1744791;80;21099;-63
2022/03/14 10:49:44;;;;;;;15.40;7.90;;;;;;;4.08;45.73;102112.13;1788267;80;21150;-64
2022/03/14 10:52:20;;;;;;;17.00;8.33;;;;;;;4.07;45.64;102108.55;1784996;80;21079;-63
2022/03/14 10:54:50;;;;;;;18.00;9.48;;;;;;;4.10;45.27;102099.32;1757360;80;21141;-63
2022/03/14 10:57:28;;;;;;;15.75;8.70;;;;;;;4.09;45.37;102099.81;1757159;80;21165;-62
2022/03/14 10:59:56;;;;;;;17.05;9.63;;;;;;;4.09;45.36;102097.59;1757149;80;21176;-62
2022/03/14 11:02:27;;;;;;;18.90;9.10;;;;;;;4.12;45.59;102098.72;1754725;81;21141;-62
2022/03/14 11:04:58;;;;;;;14.07;7.92;;;;;;;4.18;45.57;102097.39;1733128;81;21086;-63
2022/03/14 11:07:31;;;;;;;16.37;8.38;;;;;;;4.20;45.52;102090.87;1733233;83;21162;-63
2022/03/14 11:10:06;;;;;;;17.35;8.18;;;;;;;4.24;45.43;102088.30;1737695;82;21161;-62
2022/03/14 11:12:34;;;;;;;16.65;7.85;;;;;;;4.29;45.75;102083.88;1744224;82;21155;-62
2022/03/14 11:15:07;;;;;;;14.10;7.30;;;;;;;4.33;45.48;102074.53;1743707;81;21620;-63
2022/03/14 11:17:37;;;;;;;13.95;7.37;;;;;;;4.37;45.35;102077.37;1743948;82;21147;-63
2022/03/14 11:20:09;;;;;;;12.25;6.72;;;;;;;4.39;45.06;102074.92;1742036;82;21163;-63
2022/03/14 11:22:40;;;;;;;13.18;6.65;;;;;;;4.38;45.23;102071.84;1743771;81;21127;-63
2022/03/14 11:25:09;;;;;;;15.98;5.80;;;;;;;4.39;45.04;102061.36;1744006;82;21115;-62
2022/03/14 11:27:38;;;;;;;10.08;5.70;;;;;;;4.46;45.13;102065.33;1743693;82;21116;-62
2022/03/14 11:30:10;;;;;;;8.78;4.97;;;;;;;4.54;44.74;102057.95;1708698;82;21128;-64
2022/03/14 11:32:41;;;;;;;9.30;5.12;;;;;;;4.59;44.73;102057.14;1743751;82;21111;-62
2022/03/14 11:35:10;;;;;;;8.43;4.72;;;;;;;4.64;44.73;102058.14;1743601;82;21087;-63